Time;durP1;ratioP1;P1;durP2;ratioP2;P2;SDS_P1;SDS_P2;PMS_P1;PMS_P2;Temp;Humidity;BMP_temperature;BMP_pressure;BME280_temperature;BME280_humidity;BME280_pressure;Samples;Min_cycle;Max_cycle;Signal;HPM_P1;HPM_P2
2023/07/06 00:01:23;;;;;;;2.33;0.90;;;19.70;82.10;;;;;;5073365;28;20572;-78
2023/07/06 00:03:50;;;;;;;2.40;1.08;;;19.80;82.50;;;;;;5075131;28;20059;-78
2023/07/06 00:06:17;;;;;;;3.00;1.02;;;19.80;82.50;;;;;;5073615;28;20025;-78
2023/07/06 00:08:42;;;;;;;2.03;1.00;;;19.80;82.70;;;;;;5075535;28;20095;-78
2023/07/06 00:11:09;;;;;;;1.75;1.15;;;19.70;82.90;;;;;;5073730;28;20056;-78
2023/07/06 00:13:36;;;;;;;4.20;1.20;;;19.70;83.50;;;;;;5078573;28;20021;-78
2023/07/06 00:16:02;;;;;;;4.75;1.20;;;19.70;83.50;;;;;;5074232;28;20035;-79
2023/07/06 00:18:28;;;;;;;2.53;0.95;;;19.70;83.60;;;;;;5074869;28;20108;-78
2023/07/06 00:20:54;;;;;;;2.47;1.00;;;19.70;83.60;;;;;;5073577;28;20023;-77
2023/07/06 00:23:23;;;;;;;1.83;1.15;;;19.60;83.70;;;;;;5074121;28;20024;-76
2023/07/06 00:25:49;;;;;;;3.20;1.10;;;19.60;83.80;;;;;;5073555;28;20098;-76
2023/07/06 00:28:16;;;;;;;2.63;1.35;;;19.50;84.00;;;;;;5072370;28;20449;-76
2023/07/06 00:33:15;;;;;;;4.70;1.40;;;19.40;84.90;;;;;;5071023;28;20097;-77
2023/07/06 00:35:41;;;;;;;3.22;1.40;;;19.40;85.40;;;;;;5073469;28;20469;-76
2023/07/06 00:38:10;;;;;;;3.22;1.00;;;19.40;86.20;;;;;;5073962;28;20017;-76
2023/07/06 00:41:05;;;;;;;2.22;1.02;;;19.40;87.10;;;;;;5073063;28;20103;-76
2023/07/06 00:43:54;;;;;;;6.80;1.10;;;19.40;86.90;;;;;;5064969;28;20031;-76
2023/07/06 00:46:23;;;;;;;3.38;1.10;;;19.40;87.20;;;;;;5068873;28;20025;-76
2023/07/06 00:48:51;;;;;;;4.00;1.20;;;19.40;87.40;;;;;;5053423;28;20058;-76
2023/07/06 00:51:19;;;;;;;2.38;1.27;;;19.30;87.70;;;;;;5053815;28;20017;-76
2023/07/06 00:53:54;;;;;;;2.92;1.58;;;19.30;88.90;;;;;;5052980;28;20046;-76
2023/07/06 00:56:26;;;;;;;2.70;1.20;;;19.20;89.50;;;;;;5052064;28;20441;-76
2023/07/06 00:58:56;;;;;;;3.83;1.30;;;19.20;89.40;;;;;;5053569;28;20017;-76
2023/07/06 01:01:23;;;;;;;3.22;1.40;;;19.10;90.00;;;;;;5052447;28;20098;-76
2023/07/06 01:03:55;;;;;;;2.45;0.95;;;19.00;90.90;;;;;;5053818;28;20048;-75
2023/07/06 01:06:32;;;;;;;3.80;1.27;;;19.00;91.70;;;;;;5053371;28;20029;-75
2023/07/06 01:08:59;;;;;;;2.17;1.13;;;19.00;91.90;;;;;;5052743;28;20025;-76
2023/07/06 01:11:24;;;;;;;2.17;1.02;;;19.00;92.40;;;;;;5051916;28;20733;-76
2023/07/06 01:13:53;;;;;;;1.55;1.15;;;18.90;92.30;;;;;;5053721;28;20466;-75
2023/07/06 01:16:42;;;;;;;3.67;1.30;;;19.00;92.50;;;;;;5051400;28;20116;-76
2023/07/06 01:19:46;;;;;;;1.48;1.05;;;18.90;92.80;;;;;;5053292;28;20607;-77
2023/07/06 01:22:33;;;;;;;5.40;1.30;;;18.80;92.30;;;;;;5057644;28;20092;-76
2023/07/06 01:25:36;;;;;;;1.92;1.02;;;18.80;91.90;;;;;;5065052;28;20076;-76
2023/07/06 01:28:40;;;;;;;1.50;1.00;;;18.80;91.70;;;;;;5051980;28;20056;-76
2023/07/06 01:31:36;;;;;;;2.22;1.15;;;18.80;91.70;;;;;;5052268;28;20017;-76
2023/07/06 01:34:29;;;;;;;4.30;1.30;;;18.80;91.70;;;;;;5052647;28;20028;-75
2023/07/06 01:37:09;;;;;;;2.35;1.20;;;18.90;92.00;;;;;;5052413;28;20356;-75
2023/07/06 01:39:35;;;;;;;2.40;1.10;;;18.90;92.10;;;;;;5052210;28;20112;-76
2023/07/06 01:42:10;;;;;;;3.55;1.27;;;18.80;92.90;;;;;;5053275;28;20661;-76
2023/07/06 01:44:37;;;;;;;2.75;1.20;;;18.80;93.50;;;;;;5051715;28;20048;-76
2023/07/06 01:47:04;;;;;;;3.13;1.30;;;18.80;93.50;;;;;;5051918;28;20025;-76
2023/07/06 01:49:30;;;;;;;3.85;1.20;;;18.70;93.90;;;;;;5051206;28;20024;-76
2023/07/06 01:52:04;;;;;;;4.65;1.20;;;18.60;94.20;;;;;;5051833;28;20017;-76
2023/07/06 01:54:39;;;;;;;3.60;1.50;;;18.60;94.70;;;;;;5051023;28;20028;-76
2023/07/06 01:57:14;;;;;;;7.25;1.50;;;18.50;95.10;;;;;;5051937;28;20025;-75
2023/07/06 01:59:46;;;;;;;3.92;1.40;;;18.50;95.40;;;;;;5051788;28;20021;-75
2023/07/06 02:02:13;;;;;;;3.53;1.25;;;18.50;96.00;;;;;;5051177;28;20021;-75
2023/07/06 02:04:43;;;;;;;5.72;1.52;;;18.30;96.40;;;;;;5052632;28;20033;-76
2023/07/06 02:07:11;;;;;;;3.08;1.30;;;18.20;97.00;;;;;;5052777;28;20031;-78
2023/07/06 02:09:44;;;;;;;3.97;1.20;;;18.20;97.20;;;;;;5051980;28;20020;-76
2023/07/06 02:12:12;;;;;;;3.75;1.50;;;18.10;97.30;;;;;;5050933;28;20025;-76
2023/07/06 02:14:38;;;;;;;1.80;1.00;;;18.10;98.00;;;;;;5053131;28;20111;-76
2023/07/06 02:17:06;;;;;;;4.38;1.35;;;18.10;98.40;;;;;;5051644;28;20017;-76
2023/07/06 02:19:33;;;;;;;1.90;1.10;;;18.10;98.80;;;;;;5051989;28;20082;-76
2023/07/06 02:21:58;;;;;;;2.38;1.30;;;18.10;99.00;;;;;;5051400;28;20098;-76
2023/07/06 02:24:24;;;;;;;5.30;1.30;;;18.00;99.60;;;;;;5052252;28;20451;-76
2023/07/06 02:26:50;;;;;;;2.00;1.10;;;18.00;99.80;;;;;;5052874;28;20039;-76
2023/07/06 02:29:16;;;;;;;3.60;1.65;;;18.00;99.90;;;;;;5050474;28;20025;-76
2023/07/06 02:31:42;;;;;;;2.78;1.27;;;17.90;99.90;;;;;;5051624;28;20021;-76
2023/07/06 02:34:08;;;;;;;3.97;1.30;;;18.00;99.20;;;;;;5051124;28;20049;-76
2023/07/06 02:36:34;;;;;;;2.58;1.40;;;17.90;98.80;;;;;;5052040;28;20052;-75
2023/07/06 02:39:00;;;;;;;2.45;1.30;;;18.00;98.50;;;;;;5051412;28;20047;-76
2023/07/06 02:41:25;;;;;;;4.18;1.42;;;18.00;98.40;;;;;;5050558;28;20080;-77
2023/07/06 02:43:52;;;;;;;2.58;1.67;;;18.00;99.80;;;;;;5052257;28;20403;-76
2023/07/06 02:46:19;;;;;;;4.55;1.50;;;18.00;99.90;;;;;;5050506;28;20462;-77
2023/07/06 02:48:46;;;;;;;3.63;1.52;;;17.90;99.90;;;;;;5052485;28;20060;-76
2023/07/06 02:51:12;;;;;;;3.25;1.10;;;17.90;99.90;;;;;;5052086;28;20103;-77
2023/07/06 02:53:38;;;;;;;2.10;1.25;;;17.80;99.90;;;;;;5050781;28;20017;-77
2023/07/06 02:56:03;;;;;;;3.20;1.42;;;17.80;99.90;;;;;;5052323;28;20113;-76
2023/07/06 02:58:29;;;;;;;4.93;1.77;;;17.70;99.90;;;;;;5050458;28;20509;-76
2023/07/06 03:00:55;;;;;;;4.03;1.30;;;17.50;99.90;;;;;;5052523;28;20103;-76
2023/07/06 03:03:23;;;;;;;2.90;1.50;;;17.40;99.90;;;;;;5050463;28;20104;-76
2023/07/06 03:05:49;;;;;;;3.28;1.27;;;17.40;99.90;;;;;;5052144;28;20029;-76
2023/07/06 03:08:15;;;;;;;1.52;1.13;;;17.20;99.90;;;;;;5051628;28;20063;-77
2023/07/06 03:10:46;;;;;;;4.70;1.42;;;17.10;99.90;;;;;;5051119;28;20063;-75
2023/07/06 03:13:13;;;;;;;4.05;1.40;;;17.00;99.90;;;;;;5051007;28;20060;-78
2023/07/06 03:15:40;;;;;;;5.63;1.60;;;17.00;99.90;;;;;;5051332;28;20362;-76
2023/07/06 03:18:06;;;;;;;2.83;1.40;;;16.90;99.90;;;;;;5050931;28;20096;-76
2023/07/06 03:20:36;;;;;;;2.85;1.70;;;16.80;99.90;;;;;;5049905;28;20401;-76
2023/07/06 03:23:02;;;;;;;4.82;1.65;;;16.80;99.90;;;;;;5052064;28;20120;-76
2023/07/06 03:25:28;;;;;;;4.28;1.52;;;16.60;99.90;;;;;;5051167;28;20033;-76
2023/07/06 03:27:55;;;;;;;4.22;1.80;;;16.60;99.90;;;;;;5050748;28;20025;-76
2023/07/06 03:30:23;;;;;;;5.18;1.50;;;16.60;99.90;;;;;;5051408;28;20033;-75
2023/07/06 03:32:49;;;;;;;3.03;1.45;;;16.60;99.90;;;;;;5052153;28;20115;-76
2023/07/06 03:35:14;;;;;;;2.70;1.70;;;16.60;99.90;;;;;;5050597;28;20465;-76
2023/07/06 03:37:42;;;;;;;2.30;1.52;;;16.60;99.90;;;;;;5056401;28;20023;-76
2023/07/06 03:40:12;;;;;;;3.83;1.42;;;16.60;99.90;;;;;;5070802;28;20032;-76
2023/07/06 03:42:39;;;;;;;2.20;1.50;;;16.60;99.90;;;;;;5071473;28;20024;-77
2023/07/06 03:45:06;;;;;;;3.90;1.45;;;16.70;99.90;;;;;;5070636;28;20063;-76
2023/07/06 03:47:33;;;;;;;5.07;1.40;;;16.70;99.90;;;;;;5070265;28;20488;-77
2023/07/06 03:49:59;;;;;;;2.42;1.63;;;16.70;99.90;;;;;;5071495;28;20120;-76
2023/07/06 03:52:27;;;;;;;1.88;1.35;;;16.70;99.90;;;;;;5071677;28;20051;-77
2023/07/06 03:54:53;;;;;;;3.15;1.60;;;16.60;99.90;;;;;;5074485;28;20024;-77
2023/07/06 03:57:19;;;;;;;2.95;1.70;;;16.60;99.90;;;;;;5075064;28;20028;-77
2023/07/06 03:59:45;;;;;;;5.45;1.50;;;16.70;99.90;;;;;;5075630;28;20028;-77
2023/07/06 04:02:12;;;;;;;3.65;1.50;;;16.60;99.90;;;;;;5074001;28;20369;-77
2023/07/06 04:04:38;;;;;;;5.15;1.75;;;16.70;99.90;;;;;;5073310;28;20037;-75
2023/07/06 04:07:04;;;;;;;4.85;1.42;;;16.60;99.90;;;;;;5075285;28;20365;-76
2023/07/06 04:09:30;;;;;;;2.17;1.58;;;16.70;99.90;;;;;;5073226;28;20020;-76
2023/07/06 04:11:55;;;;;;;4.85;1.70;;;16.60;99.90;;;;;;5075343;28;20025;-76
2023/07/06 04:14:25;;;;;;;4.47;1.67;;;16.50;99.90;;;;;;5073211;28;20036;-75
2023/07/06 04:16:56;;;;;;;4.40;2.53;;;16.50;99.90;;;;;;5074069;28;20044;-75
2023/07/06 04:19:23;;;;;;;2.70;1.80;;;16.50;99.90;;;;;;5075128;28;20055;-74
2023/07/06 04:21:48;;;;;;;4.05;1.63;;;16.40;99.90;;;;;;5074023;28;20085;-76
2023/07/06 04:24:16;;;;;;;3.60;1.60;;;16.30;99.90;;;;;;5073637;28;20024;-75
2023/07/06 04:26:43;;;;;;;1.92;1.50;;;16.20;99.90;;;;;;5073232;28;20024;-75
2023/07/06 04:29:09;;;;;;;3.65;1.80;;;16.30;99.90;;;;;;5073587;28;20124;-77
2023/07/06 04:31:36;;;;;;;6.45;2.00;;;16.30;99.90;;;;;;5074308;28;20445;-75
2023/07/06 04:34:03;;;;;;;6.32;1.83;;;16.20;99.90;;;;;;5073591;28;20020;-75
2023/07/06 04:36:31;;;;;;;3.10;1.50;;;16.20;99.90;;;;;;5074091;28;20025;-76
2023/07/06 04:38:58;;;;;;;4.20;1.50;;;16.30;99.90;;;;;;5073488;28;20043;-75
2023/07/06 04:41:25;;;;;;;3.80;1.50;;;16.20;99.90;;;;;;5073870;28;20025;-75
2023/07/06 04:43:52;;;;;;;5.18;1.63;;;16.20;99.90;;;;;;5084389;28;20060;-77
2023/07/06 04:46:18;;;;;;;6.13;2.10;;;16.20;99.90;;;;;;5082799;28;20020;-77
2023/07/06 04:48:44;;;;;;;5.13;1.83;;;16.10;99.90;;;;;;5074359;28;20025;-76
2023/07/06 04:51:11;;;;;;;4.20;1.98;;;16.10;99.90;;;;;;5073244;28;20024;-76
2023/07/06 04:53:38;;;;;;;4.53;1.52;;;16.20;99.90;;;;;;5073748;28;20028;-76
2023/07/06 04:56:04;;;;;;;4.18;1.58;;;16.20;99.90;;;;;;5074024;28;20453;-75
2023/07/06 04:58:30;;;;;;;2.92;1.60;;;16.30;99.90;;;;;;5072234;28;20021;-75
2023/07/06 05:00:57;;;;;;;2.55;1.30;;;16.30;99.90;;;;;;5072957;28;20063;-75
2023/07/06 05:03:23;;;;;;;3.95;1.60;;;16.30;99.90;;;;;;5073538;28;20403;-76
2023/07/06 05:05:48;;;;;;;4.95;1.70;;;16.40;99.90;;;;;;5074218;28;20108;-76
2023/07/06 05:08:16;;;;;;;3.40;1.85;;;16.40;99.90;;;;;;5073086;28;20071;-76
2023/07/06 05:10:50;;;;;;;4.25;2.17;;;16.40;99.90;;;;;;5072124;28;20274;-76
2023/07/06 05:13:17;;;;;;;2.65;1.42;;;16.40;99.90;;;;;;5072848;28;20027;-75
2023/07/06 05:15:43;;;;;;;2.65;1.60;;;16.50;99.90;;;;;;5071583;28;20032;-75
2023/07/06 05:18:09;;;;;;;2.70;1.30;;;16.50;99.90;;;;;;5073143;28;20081;-75
2023/07/06 05:20:35;;;;;;;3.15;1.48;;;16.50;99.90;;;;;;5071772;28;20021;-75
2023/07/06 05:23:03;;;;;;;6.03;1.83;;;16.60;99.90;;;;;;5072412;28;20031;-76
2023/07/06 05:25:29;;;;;;;2.95;1.58;;;16.60;99.90;;;;;;5072851;28;20075;-76
2023/07/06 05:27:54;;;;;;;4.20;2.10;;;16.70;99.90;;;;;;5072203;28;20048;-76
2023/07/06 05:30:20;;;;;;;2.95;1.50;;;16.70;99.90;;;;;;5072180;28;20024;-77
2023/07/06 05:32:48;;;;;;;3.15;1.80;;;16.80;99.90;;;;;;5071994;28;20455;-76
2023/07/06 05:35:15;;;;;;;3.08;1.20;;;16.90;99.90;;;;;;5073602;28;20016;-76
2023/07/06 05:37:41;;;;;;;3.92;1.80;;;16.90;99.90;;;;;;5072884;28;20017;-77
2023/07/06 05:40:08;;;;;;;3.17;1.80;;;16.90;99.90;;;;;;5072377;28;20016;-76
2023/07/06 05:42:34;;;;;;;3.05;2.05;;;17.00;99.90;;;;;;5071338;28;20025;-77
2023/07/06 05:44:59;;;;;;;4.22;1.58;;;17.00;99.90;;;;;;5073236;28;20059;-76
2023/07/06 05:47:26;;;;;;;3.15;1.55;;;17.00;99.90;;;;;;5071353;28;20024;-78
2023/07/06 05:49:52;;;;;;;6.32;1.65;;;17.10;99.90;;;;;;5073144;28;20017;-77
2023/07/06 05:52:18;;;;;;;1.83;1.35;;;17.10;99.90;;;;;;5071932;28;20520;-77
2023/07/06 05:54:43;;;;;;;3.65;1.98;;;17.20;99.90;;;;;;5071145;28;20579;-78
2023/07/06 05:57:10;;;;;;;4.53;1.80;;;17.20;99.90;;;;;;5072058;28;20445;-77
2023/07/06 05:59:41;;;;;;;3.63;1.85;;;17.20;99.90;;;;;;5071235;28;20025;-77
2023/07/06 06:02:09;;;;;;;2.85;1.70;;;17.30;99.90;;;;;;5072046;28;20533;-77
2023/07/06 06:04:37;;;;;;;5.30;1.77;;;17.30;99.90;;;;;;5071142;28;20029;-77
2023/07/06 06:07:04;;;;;;;3.70;1.60;;;17.40;99.90;;;;;;5071713;28;20025;-78
2023/07/06 06:09:30;;;;;;;3.22;1.60;;;17.40;99.90;;;;;;5071185;28;20024;-77
2023/07/06 06:11:55;;;;;;;3.63;1.50;;;17.50;99.90;;;;;;5072929;28;20025;-77
2023/07/06 06:14:21;;;;;;;4.45;1.70;;;17.60;99.90;;;;;;5071216;28;20033;-77
2023/07/06 06:16:47;;;;;;;3.35;1.40;;;17.60;99.90;;;;;;5073647;28;20021;-78
2023/07/06 06:19:13;;;;;;;3.65;1.27;;;17.60;99.90;;;;;;5073835;28;20357;-76
2023/07/06 06:21:38;;;;;;;4.18;1.20;;;17.70;99.90;;;;;;5074146;28;20529;-76
2023/07/06 06:24:08;;;;;;;2.10;1.52;;;17.70;99.90;;;;;;5071316;28;20024;-77
2023/07/06 06:26:34;;;;;;;4.07;1.60;;;17.80;99.90;;;;;;5072040;28;20019;-77
2023/07/06 06:29:00;;;;;;;4.95;1.60;;;17.90;99.90;;;;;;5071537;28;20017;-75
2023/07/06 06:31:27;;;;;;;2.45;1.15;;;17.90;99.90;;;;;;5072386;28;20021;-78
2023/07/06 06:33:53;;;;;;;4.47;1.63;;;17.90;99.90;;;;;;5071380;28;20519;-77
2023/07/06 06:36:19;;;;;;;7.65;1.48;;;18.00;99.90;;;;;;5072792;28;20032;-78
2023/07/06 06:38:45;;;;;;;4.55;1.48;;;18.00;99.90;;;;;;5071867;28;20086;-77
2023/07/06 06:41:11;;;;;;;4.28;1.73;;;18.00;99.90;;;;;;5072563;28;20021;-77
2023/07/06 06:43:44;;;;;;;3.13;1.48;;;18.00;99.90;;;;;;5070471;28;20111;-77
2023/07/06 06:46:10;;;;;;;3.60;1.50;;;18.00;99.90;;;;;;5072741;28;20120;-77
2023/07/06 06:48:36;;;;;;;3.13;1.30;;;18.10;99.90;;;;;;5070625;28;20048;-77
2023/07/06 06:51:04;;;;;;;3.83;1.67;;;18.10;99.90;;;;;;5071099;28;20048;-75
2023/07/06 06:53:30;;;;;;;3.78;1.70;;;18.10;99.90;;;;;;5070218;28;20016;-76
2023/07/06 06:55:58;;;;;;;3.63;1.67;;;18.20;99.90;;;;;;5072213;28;20199;-75
2023/07/06 06:58:24;;;;;;;3.70;1.60;;;18.20;99.90;;;;;;5072356;28;20442;-77
2023/07/06 07:00:57;;;;;;;5.30;1.83;;;18.30;99.90;;;;;;5071612;28;20028;-77
2023/07/06 07:03:22;;;;;;;4.57;1.40;;;18.30;99.90;;;;;;5071246;28;20373;-78
2023/07/06 07:05:48;;;;;;;5.97;1.92;;;18.30;99.90;;;;;;5070185;28;20029;-78
2023/07/06 07:08:14;;;;;;;3.47;1.40;;;18.40;99.90;;;;;;5071060;28;20024;-77
2023/07/06 07:10:39;;;;;;;2.88;1.45;;;18.40;99.90;;;;;;5070204;28;20108;-77
2023/07/06 07:13:05;;;;;;;2.85;1.75;;;18.40;99.90;;;;;;5071987;28;20091;-77
2023/07/06 07:15:30;;;;;;;6.72;1.83;;;18.50;99.90;;;;;;5069900;28;20028;-78
2023/07/06 07:17:58;;;;;;;7.40;1.80;;;18.60;99.90;;;;;;5070855;28;20105;-77
2023/07/06 07:20:26;;;;;;;2.50;1.65;;;18.60;99.90;;;;;;5070577;28;20484;-77
2023/07/06 07:22:54;;;;;;;4.55;1.60;;;18.60;99.90;;;;;;5070014;28;20466;-74
2023/07/06 07:25:19;;;;;;;3.70;1.75;;;18.60;99.90;;;;;;5070373;28;20479;-75
2023/07/06 07:27:46;;;;;;;3.38;1.67;;;18.70;99.90;;;;;;5072302;28;20021;-78
2023/07/06 07:30:11;;;;;;;6.82;2.42;;;18.70;99.90;;;;;;5075622;28;20021;-75
2023/07/06 07:32:37;;;;;;;6.28;2.53;;;18.80;99.90;;;;;;5073762;28;20020;-78
2023/07/06 07:35:03;;;;;;;3.78;1.70;;;18.80;99.90;;;;;;5074403;28;20124;-78
2023/07/06 07:37:29;;;;;;;4.63;2.22;;;18.80;99.90;;;;;;5074005;28;20031;-78
2023/07/06 07:39:55;;;;;;;4.85;1.88;;;18.90;99.90;;;;;;5074557;28;20028;-77
2023/07/06 07:42:21;;;;;;;6.38;1.80;;;18.90;99.90;;;;;;5074510;28;20533;-78
2023/07/06 07:44:47;;;;;;;9.60;1.83;;;18.90;99.90;;;;;;5072807;28;20094;-77
2023/07/06 07:47:18;;;;;;;5.18;1.73;;;18.90;99.90;;;;;;5073078;28;20399;-77
2023/07/06 07:49:45;;;;;;;6.88;1.52;;;19.00;99.90;;;;;;5073509;28;20567;-80
2023/07/06 07:52:12;;;;;;;3.55;1.60;;;19.00;99.90;;;;;;5075466;28;20427;-78
2023/07/06 07:54:38;;;;;;;1.25;1.15;;;19.10;99.90;;;;;;5073315;28;20024;-76
2023/07/06 07:57:04;;;;;;;5.35;1.60;;;19.10;99.90;;;;;;5074459;28;20017;-76
2023/07/06 07:59:29;;;;;;;6.53;1.73;;;19.20;99.90;;;;;;5074883;28;20031;-77
2023/07/06 08:01:56;;;;;;;3.35;1.50;;;19.20;99.90;;;;;;5073703;28;20439;-77
2023/07/06 08:04:21;;;;;;;3.75;1.73;;;19.20;99.90;;;;;;5074701;28;20021;-78
2023/07/06 08:06:47;;;;;;;3.15;1.50;;;19.30;99.90;;;;;;5073621;28;20027;-77
2023/07/06 08:09:13;;;;;;;5.05;1.50;;;19.30;99.90;;;;;;5075409;28;20023;-77
2023/07/06 08:11:45;;;;;;;3.28;1.30;;;19.30;99.90;;;;;;5075138;28;20060;-77
2023/07/06 08:14:11;;;;;;;3.92;1.30;;;19.30;99.90;;;;;;5074136;28;20035;-77
2023/07/06 08:16:40;;;;;;;1.98;1.20;;;19.30;99.90;;;;;;5074816;28;20357;-79
2023/07/06 08:19:07;;;;;;;4.50;1.58;;;19.30;99.90;;;;;;5074609;28;20035;-80
2023/07/06 08:21:33;;;;;;;2.35;1.05;;;19.40;99.90;;;;;;5074203;28;20052;-79
2023/07/06 08:23:59;;;;;;;5.25;1.58;;;19.40;99.50;;;;;;5074747;28;20025;-77
2023/07/06 08:26:25;;;;;;;3.40;1.10;;;19.40;99.80;;;;;;5073451;28;20036;-78
2023/07/06 08:28:51;;;;;;;3.35;1.08;;;19.50;98.90;;;;;;5072902;28;20131;-77
2023/07/06 08:31:19;;;;;;;5.05;1.13;;;19.50;98.70;;;;;;5073586;28;20091;-77
2023/07/06 08:33:47;;;;;;;1.88;0.85;;;19.60;96.10;;;;;;5073160;28;20026;-78
2023/07/06 08:36:15;;;;;;;4.55;1.30;;;19.60;95.10;;;;;;5073304;28;20121;-80
2023/07/06 08:38:43;;;;;;;3.70;1.52;;;19.70;95.60;;;;;;5070452;28;20021;-79
2023/07/06 08:41:31;;;;;;;5.68;3.17;;;19.70;96.20;;;;;;5074622;28;20107;-76
2023/07/06 08:43:59;;;;;;;2.90;1.23;;;19.70;96.10;;;;;;5066526;28;20135;-77
2023/07/06 08:46:30;;;;;;;5.32;1.35;;;19.70;96.30;;;;;;5074199;28;20032;-79
2023/07/06 08:48:56;;;;;;;2.10;1.10;;;19.80;96.90;;;;;;5073711;28;20143;-80
2023/07/06 08:51:27;;;;;;;7.78;1.08;;;19.80;97.30;;;;;;5075524;28;20016;-80
2023/07/06 08:54:05;;;;;;;;;;;19.80;96.90;;;;;;5058157;28;20047;-81
2023/07/06 08:56:36;;;;;;;4.95;1.30;;;19.80;96.90;;;;;;5062929;28;19907;-80
2023/07/06 08:59:07;;;;;;;6.97;1.27;;;19.90;96.80;;;;;;5073873;28;20028;-79
2023/07/06 09:01:34;;;;;;;5.00;1.10;;;19.90;96.20;;;;;;5073907;28;20458;-82
2023/07/06 09:04:06;;;;;;;1.83;0.93;;;19.90;96.30;;;;;;5074951;28;20027;-80
2023/07/06 09:06:36;;;;;;;2.58;1.27;;;19.90;96.00;;;;;;5073884;28;20033;-82
2023/07/06 09:09:02;;;;;;;3.13;0.95;;;19.90;96.30;;;;;;5074066;28;20408;-80
2023/07/06 09:11:31;;;;;;;4.85;1.48;;;20.00;96.20;;;;;;5074884;28;20023;-80
2023/07/06 09:13:58;;;;;;;3.72;1.10;;;20.00;96.30;;;;;;5073172;28;20025;-79
2023/07/06 09:16:25;;;;;;;4.10;1.23;;;20.10;96.50;;;;;;5074809;28;20028;-80
2023/07/06 09:18:54;;;;;;;2.90;1.33;;;20.00;96.30;;;;;;5072951;28;20187;-81
2023/07/06 09:21:22;;;;;;;3.55;1.20;;;20.10;96.90;;;;;;5073910;28;20055;-85
2023/07/06 09:23:48;;;;;;;3.35;1.00;;;20.20;96.70;;;;;;5073506;28;20025;-84
2023/07/06 09:26:21;;;;;;;3.15;1.10;;;20.20;96.10;;;;;;5073608;28;20025;-81
2023/07/06 09:28:47;;;;;;;3.95;1.30;;;20.30;95.50;;;;;;5073107;28;20116;-82
2023/07/06 09:31:21;;;;;;;3.03;1.00;;;20.30;95.30;;;;;;5074140;28;20100;-82
2023/07/06 09:33:53;;;;;;;3.97;1.30;;;20.40;95.70;;;;;;5071664;28;20024;-82
2023/07/06 09:36:25;;;;;;;4.32;1.25;;;20.40;95.60;;;;;;5074196;28;20021;-80
2023/07/06 09:38:52;;;;;;;3.50;1.15;;;20.50;94.90;;;;;;5067656;28;20524;-81
2023/07/06 09:41:26;;;;;;;2.45;1.30;;;20.50;94.80;;;;;;5073683;28;20028;-83
2023/07/06 09:43:57;;;;;;;3.00;1.20;;;20.40;94.80;;;;;;5057604;28;20270;-82
2023/07/06 09:46:34;;;;;;;4.32;1.20;;;20.50;94.90;;;;;;5073813;28;20028;-80
2023/07/06 09:49:00;;;;;;;3.58;1.38;;;20.60;94.60;;;;;;5072580;28;20031;-81
2023/07/06 09:51:37;;;;;;;3.72;1.20;;;20.50;94.30;;;;;;5072981;28;20017;-78
2023/07/06 09:54:11;;;;;;;3.03;1.25;;;20.60;94.30;;;;;;5073036;28;20017;-76
2023/07/06 09:56:37;;;;;;;3.83;1.20;;;20.70;92.90;;;;;;5070519;28;20082;-79
2023/07/06 09:59:03;;;;;;;5.15;0.82;;;20.80;92.70;;;;;;5071613;28;20415;-76
2023/07/06 10:01:53;;;;;;;3.42;1.05;;;20.80;91.80;;;;;;5071476;28;20021;-78
2023/07/06 10:04:37;;;;;;;4.90;1.45;;;20.90;91.20;;;;;;5071186;28;20032;-76
2023/07/06 10:07:18;;;;;;;2.42;1.30;;;21.00;91.20;;;;;;5080407;28;20048;-76
2023/07/06 10:10:24;;;;;;;3.55;1.40;;;21.10;90.80;;;;;;5072753;28;20509;-77
2023/07/06 10:13:23;;;;;;;3.25;1.10;;;21.30;90.70;;;;;;5040670;28;20028;-78
2023/07/06 10:16:15;;;;;;;2.92;1.23;;;21.50;90.80;;;;;;5069946;28;20038;-81
2023/07/06 10:18:49;;;;;;;;;;;21.60;90.90;;;;;;5072733;28;20044;-79
2023/07/06 10:21:40;;;;;;;3.33;1.13;;;21.70;91.10;;;;;;5067437;28;19908;-80
2023/07/06 10:24:38;;;;;;;3.83;1.20;;;21.90;90.30;;;;;;5072944;28;20031;-81
2023/07/06 10:27:10;;;;;;;5.35;1.40;;;22.10;87.90;;;;;;5073389;28;20063;-78
2023/07/06 10:29:45;;;;;;;3.90;2.47;;;22.20;89.20;;;;;;5072222;28;20020;-78
2023/07/06 10:32:34;;;;;;;6.25;1.70;;;22.20;83.70;;;;;;5072956;28;20025;-84
2023/07/06 10:35:22;;;;;;;2.00;1.10;;;22.20;83.50;;;;;;5071024;28;20028;-76
2023/07/06 10:37:49;;;;;;;5.22;1.50;;;22.20;82.60;;;;;;5070698;28;20553;-82
2023/07/06 10:40:25;;;;;;;3.83;1.08;;;22.30;85.40;;;;;;5072021;28;20021;-78
2023/07/06 10:43:13;;;;;;;5.05;1.27;;;22.30;83.60;;;;;;5071075;28;20614;-78
2023/07/06 10:45:38;;;;;;;3.47;1.48;;;22.50;81.00;;;;;;5070204;28;20044;-80
2023/07/06 10:48:13;;;;;;;6.65;1.50;;;22.50;79.90;;;;;;5071436;28;20021;-76
2023/07/06 10:50:49;;;;;;;4.13;1.30;;;22.50;80.00;;;;;;5071205;28;20020;-80
2023/07/06 10:53:32;;;;;;;6.97;1.25;;;22.60;81.10;;;;;;5071975;28;20408;-78
2023/07/06 10:56:07;;;;;;;3.05;1.23;;;22.60;80.90;;;;;;5070219;28;20350;-80
2023/07/06 10:58:35;;;;;;;3.70;1.40;;;22.70;79.00;;;;;;5067139;28;20476;-79
2023/07/06 11:01:08;;;;;;;1.60;1.08;;;22.60;79.70;;;;;;5073971;28;20026;-81
2023/07/06 11:03:34;;;;;;;3.03;1.20;;;22.60;78.30;;;;;;5076466;28;20361;-80
2023/07/06 11:06:08;;;;;;;6.35;1.20;;;22.60;77.50;;;;;;5076263;28;20446;-79
2023/07/06 11:09:04;;;;;;;2.05;0.98;;;22.60;78.30;;;;;;5072124;28;20365;-79
2023/07/06 11:11:34;;;;;;;4.55;1.25;;;22.60;78.40;;;;;;5073574;28;20028;-79
2023/07/06 11:14:16;;;;;;;2.75;0.95;;;22.70;81.40;;;;;;5075889;28;20105;-79
2023/07/06 11:16:55;;;;;;;4.43;1.25;;;22.70;81.30;;;;;;5076649;28;20021;-80
2023/07/06 11:19:30;;;;;;;2.20;0.90;;;22.80;82.40;;;;;;5076003;28;20024;-76
2023/07/06 11:22:03;;;;;;;2.45;1.17;;;22.70;81.20;;;;;;5070887;28;20029;-77
2023/07/06 11:24:36;;;;;;;2.30;1.30;;;22.70;82.20;;;;;;5074508;28;20077;-77
2023/07/06 11:27:11;;;;;;;4.20;1.38;;;22.70;80.60;;;;;;5074670;28;20017;-77
2023/07/06 11:29:38;;;;;;;2.05;1.27;;;22.80;80.30;;;;;;5073460;28;20486;-79
2023/07/06 11:32:25;;;;;;;2.30;1.00;;;22.80;81.50;;;;;;5075826;28;20013;-77
2023/07/06 11:35:09;;;;;;;3.70;1.10;;;22.90;81.60;;;;;;5074435;28;20024;-77
2023/07/06 11:37:58;;;;;;;3.58;1.50;;;22.90;81.50;;;;;;5085813;28;20479;-78
2023/07/06 11:40:41;;;;;;;1.65;1.08;;;22.90;80.80;;;;;;5074605;28;20819;-77
2023/07/06 11:43:29;;;;;;;2.65;1.45;;;22.90;80.00;;;;;;5071437;28;20369;-76
2023/07/06 11:46:32;;;;;;;4.53;1.33;;;23.00;80.70;;;;;;5058331;28;20127;-77
2023/07/06 11:49:29;;;;;;;6.28;3.10;;;23.00;77.60;;;;;;5073586;28;20033;-77
2023/07/06 11:51:58;;;;;;;2.65;1.30;;;23.00;77.90;;;;;;5055149;28;20625;-77
2023/07/06 11:54:40;;;;;;;2.92;1.30;;;23.00;80.10;;;;;;5062166;28;20248;-76
2023/07/06 11:57:42;;;;;;;;;;;23.10;79.50;;;;;;5074503;28;20080;-77
2023/07/06 12:00:32;;;;;;;4.22;1.50;;;23.10;77.40;;;;;;5059845;28;19900;-77
2023/07/06 12:03:04;;;;;;;4.60;1.20;;;23.20;74.40;;;;;;5073109;28;20035;-77
2023/07/06 12:05:35;;;;;;;3.53;1.30;;;23.20;72.80;;;;;;5074745;28;20029;-77
2023/07/06 12:08:02;;;;;;;;;;;23.30;70.40;;;;;;5086031;28;20020;-77
2023/07/06 12:10:32;;;;;;;3.95;1.30;;;23.40;73.70;;;;;;5073687;28;20341;-76
2023/07/06 12:12:58;;;;;;;8.65;1.20;;;23.50;74.60;;;;;;5073398;28;20031;-77
2023/07/06 12:15:23;;;;;;;3.50;1.33;;;23.60;72.30;;;;;;5073700;28;20028;-76
2023/07/06 12:17:56;;;;;;;1.88;1.17;;;23.70;71.20;;;;;;5074542;28;20122;-77
2023/07/06 12:20:25;;;;;;;2.85;1.00;;;23.80;70.80;;;;;;5074911;28;20442;-77
2023/07/06 12:22:57;;;;;;;1.77;0.90;;;23.90;69.80;;;;;;5072664;28;20020;-76
2023/07/06 12:25:25;;;;;;;3.15;1.17;;;24.00;69.30;;;;;;5074777;28;20103;-77
2023/07/06 12:27:59;;;;;;;4.93;1.35;;;24.10;69.60;;;;;;5072643;28;20020;-77
2023/07/06 12:30:33;;;;;;;3.10;1.30;;;24.10;68.50;;;;;;5073602;28;20028;-76
2023/07/06 12:33:04;;;;;;;2.30;1.10;;;24.30;68.20;;;;;;5074379;28;20196;-78
2023/07/06 12:35:29;;;;;;;4.72;1.40;;;24.40;68.70;;;;;;5073252;28;20124;-78
2023/07/06 12:37:56;;;;;;;3.92;1.30;;;24.40;68.60;;;;;;5087238;28;20055;-76
2023/07/06 12:40:27;;;;;;;2.33;1.30;;;24.50;67.80;;;;;;5085560;28;20017;-77
2023/07/06 12:42:53;;;;;;;2.17;1.00;;;24.60;67.20;;;;;;5074025;28;20129;-77
2023/07/06 12:45:22;;;;;;;2.70;1.20;;;24.70;66.00;;;;;;5073924;28;20041;-78
2023/07/06 12:47:58;;;;;;;3.25;1.70;;;24.80;67.30;;;;;;5072347;28;20070;-76
2023/07/06 12:50:35;;;;;;;1.48;1.10;;;24.90;67.00;;;;;;5073073;28;20020;-76
2023/07/06 12:53:14;;;;;;;2.97;1.20;;;25.10;66.50;;;;;;5074295;28;20017;-77
2023/07/06 12:55:44;;;;;;;2.50;1.20;;;25.20;65.00;;;;;;5072073;28;20036;-77
2023/07/06 12:58:37;;;;;;;2.83;1.38;;;25.30;63.90;;;;;;5072517;28;20029;-76
2023/07/06 13:01:12;;;;;;;5.53;3.55;;;25.40;63.80;;;;;;5073914;28;20032;-77
2023/07/06 13:03:47;;;;;;;4.25;2.50;;;25.40;63.00;;;;;;5073559;28;20021;-82
2023/07/06 13:06:13;;;;;;;4.03;1.65;;;25.50;62.60;;;;;;5072998;28;20036;-79
2023/07/06 13:08:39;;;;;;;4.07;1.42;;;25.50;62.40;;;;;;5071178;28;20028;-79